Time;durP1;ratioP1;P1;durP2;ratioP2;P2;SDS_P1;SDS_P2;PMS_P1;PMS_P2;Temp;Humidity;BMP_temperature;BMP_pressure;BME280_temperature;BME280_humidity;BME280_pressure;Samples;Min_cycle;Max_cycle;Signal;HPM_P1;HPM_P2
2023/01/30 00:01:21;;;;;;;35.92;22.08;;;5.80;99.90;;;;;;5043134;28;20043;-62
2023/01/30 00:03:47;;;;;;;38.20;23.52;;;5.80;99.90;;;;;;5043224;28;20055;-62
2023/01/30 00:06:14;;;;;;;34.42;21.70;;;5.80;99.90;;;;;;5059874;28;20025;-62
2023/01/30 00:08:39;;;;;;;35.00;22.35;;;5.80;99.90;;;;;;5077141;28;20025;-62
2023/01/30 00:11:07;;;;;;;36.08;22.17;;;5.80;99.90;;;;;;5059605;28;20037;-63
2023/01/30 00:13:33;;;;;;;36.67;22.25;;;5.80;99.90;;;;;;5059673;28;20384;-63
2023/01/30 00:15:59;;;;;;;34.85;22.20;;;5.90;99.90;;;;;;5060325;28;20036;-63
2023/01/30 00:18:25;;;;;;;36.15;21.75;;;5.90;99.90;;;;;;5060197;28;20098;-62
2023/01/30 00:20:55;;;;;;;34.17;22.08;;;5.80;99.90;;;;;;5076932;28;20028;-62
2023/01/30 00:23:21;;;;;;;36.58;21.73;;;5.90;99.90;;;;;;5059336;28;20032;-63
2023/01/30 00:25:47;;;;;;;36.33;21.52;;;5.90;99.90;;;;;;5059452;28;20304;-63
2023/01/30 00:28:13;;;;;;;37.63;21.75;;;5.90;99.90;;;;;;5077104;28;20342;-62
2023/01/30 00:30:40;;;;;;;34.92;22.05;;;6.00;99.90;;;;;;5059854;28;20416;-62
2023/01/30 00:33:06;;;;;;;34.15;22.13;;;6.10;99.90;;;;;;5043144;28;20318;-62
2023/01/30 00:35:32;;;;;;;35.63;21.95;;;6.10;99.90;;;;;;5059673;28;20040;-61
2023/01/30 00:37:58;;;;;;;34.55;22.30;;;6.00;99.90;;;;;;5059266;28;20036;-62
2023/01/30 00:40:26;;;;;;;40.40;22.67;;;6.00;99.90;;;;;;5076819;28;20033;-61
2023/01/30 00:48:24;;;;;;;35.88;22.52;;;6.00;99.90;;;;;;5076837;28;20082;-62
2023/01/30 00:50:50;;;;;;;40.08;22.27;;;6.00;99.90;;;;;;5059224;28;20063;-62
2023/01/30 00:53:16;;;;;;;36.42;22.45;;;6.00;99.90;;;;;;5059196;28;20032;-63
2023/01/30 00:55:43;;;;;;;36.92;22.90;;;6.10;99.90;;;;;;5076700;28;20185;-63
2023/01/30 00:58:09;;;;;;;34.75;21.77;;;6.10;99.90;;;;;;5059071;28;20119;-63
2023/01/30 01:00:35;;;;;;;39.08;22.92;;;6.10;99.90;;;;;;5076723;28;20175;-62
2023/01/30 01:03:01;;;;;;;37.60;21.73;;;6.10;99.90;;;;;;5058963;28;20467;-61
2023/01/30 01:05:27;;;;;;;39.50;22.23;;;6.10;99.90;;;;;;5076639;28;20108;-63
2023/01/30 01:07:54;;;;;;;35.00;22.08;;;6.10;99.90;;;;;;5059188;28;20071;-62
2023/01/30 01:10:20;;;;;;;36.08;21.08;;;6.10;99.90;;;;;;5076587;28;20299;-62
2023/01/30 01:12:49;;;;;;;35.80;22.27;;;6.10;99.90;;;;;;5076477;28;20043;-63
2023/01/30 01:15:14;;;;;;;36.85;22.40;;;6.20;99.90;;;;;;5076598;28;20028;-62
2023/01/30 01:17:41;;;;;;;35.45;21.40;;;6.20;99.90;;;;;;5042408;28;20102;-62
2023/01/30 01:20:08;;;;;;;35.85;21.73;;;6.20;99.90;;;;;;5077093;28;20044;-62
2023/01/30 01:22:34;;;;;;;36.33;21.27;;;6.20;99.90;;;;;;5058871;28;20081;-61
2023/01/30 01:25:00;;;;;;;34.22;21.58;;;6.10;99.90;;;;;;5059051;28;20032;-62
2023/01/30 01:27:26;;;;;;;35.88;22.00;;;6.10;99.90;;;;;;5026043;28;20067;-61
2023/01/30 01:29:51;;;;;;;36.58;21.48;;;6.10;99.90;;;;;;5076324;28;20032;-62
2023/01/30 01:32:19;;;;;;;37.67;22.20;;;6.10;99.90;;;;;;5058910;28;20035;-62
2023/01/30 01:34:45;;;;;;;36.97;22.30;;;6.10;99.90;;;;;;5076307;28;20048;-62
2023/01/30 01:37:11;;;;;;;35.78;20.73;;;6.20;99.90;;;;;;5077619;28;20029;-61
2023/01/30 01:42:24;;;;;;;37.00;21.80;;;6.20;99.90;;;;;;5079834;28;20058;-61
2023/01/30 01:45:11;;;;;;;33.65;21.05;;;6.20;99.90;;;;;;5062396;28;20123;-62
2023/01/30 01:47:55;;;;;;;36.75;21.40;;;6.20;99.90;;;;;;5080060;28;20028;-62
2023/01/30 01:50:26;;;;;;;35.65;20.77;;;6.30;99.90;;;;;;5079676;28;20056;-62
2023/01/30 01:52:56;;;;;;;34.05;21.10;;;6.30;99.90;;;;;;5062147;28;20020;-63
2023/01/30 01:55:24;;;;;;;28.13;18.90;;;6.40;99.90;;;;;;5079723;28;20047;-62
2023/01/30 01:58:10;;;;;;;28.30;18.38;;;6.50;99.90;;;;;;5079765;28;20052;-62
2023/01/30 02:00:35;;;;;;;26.38;17.35;;;6.50;99.90;;;;;;5079611;28;20028;-62
2023/01/30 02:03:05;;;;;;;29.20;17.95;;;6.60;99.90;;;;;;5079540;28;20042;-62
2023/01/30 02:05:37;;;;;;;26.05;16.15;;;6.80;99.90;;;;;;5079360;28;20036;-63
2023/01/30 02:08:20;;;;;;;26.85;15.63;;;6.80;99.90;;;;;;5079423;28;20060;-63
2023/01/30 02:11:04;;;;;;;27.02;15.63;;;7.10;99.90;;;;;;5079934;28;20043;-66
2023/01/30 02:13:31;;;;;;;25.40;15.43;;;7.10;99.90;;;;;;5079247;28;20032;-64
2023/01/30 02:15:59;;;;;;;24.73;15.30;;;7.10;99.90;;;;;;5062014;28;20102;-63
2023/01/30 02:18:28;;;;;;;21.90;14.55;;;7.00;99.90;;;;;;5079188;28;20353;-62
2023/01/30 02:21:21;;;;;;;26.48;15.43;;;6.90;99.90;;;;;;5079140;28;20033;-62
2023/01/30 02:24:11;;;;;;;28.40;15.52;;;6.90;99.90;;;;;;5078994;28;20047;-64
2023/01/30 02:26:53;;;;;;;27.30;14.85;;;7.10;99.90;;;;;;5079068;28;20033;-63
2023/01/30 02:29:31;;;;;;;25.35;15.43;;;7.00;99.90;;;;;;5061549;28;20097;-66
2023/01/30 02:32:06;;;;;;;24.13;14.20;;;7.10;99.90;;;;;;5044894;28;20021;-64
2023/01/30 02:34:49;;;;;;;28.33;14.75;;;7.10;99.90;;;;;;5061449;28;20032;-62
2023/01/30 02:37:39;;;;;;;23.85;14.73;;;7.10;99.90;;;;;;5044922;28;20067;-62
2023/01/30 02:40:20;;;;;;;23.33;13.40;;;7.20;99.90;;;;;;5070707;28;20040;-63
2023/01/30 02:43:03;;;;;;;23.67;14.05;;;7.20;99.90;;;;;;5061198;28;20047;-63
2023/01/30 02:46:06;;;;;;;25.88;14.27;;;7.20;99.90;;;;;;5061443;28;20020;-64
2023/01/30 02:48:41;;;;;;;24.95;13.60;;;7.40;99.90;;;;;;5054382;28;20036;-61
2023/01/30 02:51:22;;;;;;;21.95;14.00;;;7.40;99.90;;;;;;5078484;28;20036;-61
2023/01/30 02:53:49;;;;;;;22.83;13.30;;;7.40;99.90;;;;;;5061155;28;20024;-62
2023/01/30 02:56:16;;;;;;;22.75;13.40;;;7.40;99.90;;;;;;5061359;28;20047;-62
2023/01/30 02:58:48;;;;;;;21.83;12.35;;;7.50;99.90;;;;;;5061144;28;20312;-62
2023/01/30 03:02:09;;;;;;;20.77;12.18;;;7.50;99.90;;;;;;5061047;28;20032;-63
2023/01/30 03:04:50;;;;;;;16.98;11.20;;;7.50;99.90;;;;;;5017154;28;20421;-62
2023/01/30 03:07:23;;;;;;;16.95;10.77;;;7.50;99.90;;;;;;5060805;28;20059;-62
2023/01/30 03:10:21;;;;;;;20.38;11.43;;;7.70;99.90;;;;;;5060723;28;20036;-62
2023/01/30 03:13:04;;;;;;;18.50;10.23;;;7.80;99.90;;;;;;5060719;28;20123;-63
2023/01/30 03:15:34;;;;;;;19.00;10.85;;;7.60;99.90;;;;;;5060721;28;20105;-63
2023/01/30 03:18:01;;;;;;;14.52;9.80;;;7.50;99.90;;;;;;5078301;28;20132;-62
2023/01/30 03:20:27;;;;;;;20.08;10.30;;;7.60;99.90;;;;;;5077982;28;20029;-61
2023/01/30 03:22:54;;;;;;;17.10;10.75;;;7.70;99.90;;;;;;5060386;28;20093;-62
2023/01/30 03:25:25;;;;;;;21.27;10.30;;;7.80;99.90;;;;;;5078183;28;20346;-61
2023/01/30 03:27:53;;;;;;;15.00;10.52;;;7.70;99.90;;;;;;5043881;28;20029;-62
2023/01/30 03:30:19;;;;;;;16.90;10.88;;;7.60;99.90;;;;;;5060390;28;20028;-62
2023/01/30 03:32:47;;;;;;;14.23;10.48;;;7.60;99.90;;;;;;5060280;28;20066;-62
2023/01/30 03:35:16;;;;;;;18.23;10.75;;;7.60;99.90;;;;;;5060523;28;20032;-63
2023/01/30 03:37:46;;;;;;;19.13;10.68;;;7.60;99.90;;;;;;5044086;28;20037;-63
2023/01/30 03:40:14;;;;;;;16.10;10.27;;;7.50;99.90;;;;;;5060163;28;20411;-63
2023/01/30 03:42:40;;;;;;;23.60;11.15;;;7.50;99.90;;;;;;5060024;28;20043;-63
2023/01/30 03:45:09;;;;;;;21.25;11.00;;;7.30;99.90;;;;;;5060332;28;20043;-62
2023/01/30 03:47:35;;;;;;;18.17;10.77;;;7.30;99.90;;;;;;5077403;28;20032;-62
2023/01/30 03:50:01;;;;;;;18.33;10.85;;;7.20;99.90;;;;;;5059828;28;20300;-62
2023/01/30 03:52:28;;;;;;;17.75;10.27;;;7.20;99.90;;;;;;5060107;28;20048;-62
2023/01/30 03:54:53;;;;;;;20.13;11.40;;;7.20;99.90;;;;;;5077385;28;20024;-61
2023/01/30 03:57:19;;;;;;;23.02;11.02;;;7.30;99.90;;;;;;5077237;28;20047;-63
2023/01/30 03:59:45;;;;;;;16.88;11.30;;;7.30;99.90;;;;;;5059542;28;20418;-63
2023/01/30 04:02:14;;;;;;;20.10;11.27;;;7.20;99.90;;;;;;5059691;28;20036;-62
2023/01/30 04:04:42;;;;;;;18.58;11.13;;;7.30;99.90;;;;;;5027461;28;20032;-63
2023/01/30 04:07:09;;;;;;;24.15;11.55;;;7.30;99.90;;;;;;5043185;28;20217;-62
2023/01/30 04:09:36;;;;;;;18.88;11.05;;;7.30;99.90;;;;;;5059660;28;20024;-63
2023/01/30 04:12:02;;;;;;;20.58;11.30;;;7.30;99.90;;;;;;5059653;28;20376;-65
2023/01/30 04:14:33;;;;;;;23.00;12.00;;;7.40;99.90;;;;;;5043775;28;20028;-65
2023/01/30 04:17:31;;;;;;;18.77;11.20;;;7.30;99.90;;;;;;5032839;28;20052;-63
2023/01/30 04:20:32;;;;;;;20.13;11.38;;;7.30;99.90;;;;;;5059786;28;20048;-64
2023/01/30 04:22:59;;;;;;;21.33;10.88;;;7.30;99.90;;;;;;5042871;28;20173;-63
2023/01/30 04:25:26;;;;;;;19.58;10.55;;;7.20;99.90;;;;;;5027215;28;20399;-64
2023/01/30 04:27:52;;;;;;;22.27;11.68;;;7.20;99.90;;;;;;5076962;28;20391;-62
2023/01/30 04:30:22;;;;;;;20.55;11.02;;;7.30;99.90;;;;;;5077149;28;20029;-64
2023/01/30 04:32:52;;;;;;;18.73;11.23;;;7.30;99.90;;;;;;5043679;28;20039;-64
2023/01/30 04:35:18;;;;;;;16.15;10.75;;;7.30;99.90;;;;;;5059443;28;20036;-64
2023/01/30 04:37:44;;;;;;;17.02;10.90;;;7.30;99.90;;;;;;5076799;28;20033;-63
2023/01/30 04:40:14;;;;;;;19.45;10.77;;;7.40;99.90;;;;;;5059216;28;20036;-64
2023/01/30 04:42:41;;;;;;;23.63;11.35;;;7.50;99.90;;;;;;5059407;28;20028;-66
2023/01/30 04:45:27;;;;;;;20.23;11.13;;;7.60;99.90;;;;;;5076114;28;20439;-63
2023/01/30 04:47:54;;;;;;;18.92;10.55;;;7.60;99.90;;;;;;5042825;28;20029;-66
2023/01/30 04:50:20;;;;;;;18.65;10.43;;;7.60;99.90;;;;;;5055723;28;20056;-64
2023/01/30 04:52:46;;;;;;;18.35;10.18;;;7.60;99.90;;;;;;5056871;28;20036;-63
2023/01/30 04:55:11;;;;;;;16.45;9.57;;;7.60;99.90;;;;;;5055835;28;20044;-62
2023/01/30 04:57:37;;;;;;;16.52;9.90;;;7.70;99.90;;;;;;5039313;28;20344;-63
2023/01/30 05:00:05;;;;;;;13.35;9.43;;;7.80;99.90;;;;;;5039258;28;20037;-63
2023/01/30 05:02:32;;;;;;;18.67;8.98;;;7.70;99.90;;;;;;5055660;28;20040;-65
2023/01/30 05:04:58;;;;;;;18.33;8.93;;;7.70;99.90;;;;;;5056533;28;20029;-63
2023/01/30 05:07:24;;;;;;;11.20;8.18;;;7.70;99.90;;;;;;5056513;28;20383;-62
2023/01/30 05:09:50;;;;;;;19.52;8.73;;;7.60;99.90;;;;;;5055778;28;20036;-62
2023/01/30 05:12:15;;;;;;;16.23;8.73;;;7.60;99.90;;;;;;5058351;28;20101;-62
2023/01/30 05:14:41;;;;;;;12.93;8.25;;;7.60;99.90;;;;;;5059571;28;20029;-61
2023/01/30 05:17:07;;;;;;;16.52;8.73;;;7.60;99.90;;;;;;5060275;28;20057;-61
2023/01/30 05:19:34;;;;;;;14.52;8.38;;;7.80;99.90;;;;;;5060336;28;20063;-62
2023/01/30 05:22:00;;;;;;;15.27;8.30;;;7.90;99.90;;;;;;5060210;28;20281;-63
2023/01/30 05:24:25;;;;;;;15.18;8.18;;;7.90;99.90;;;;;;5059741;28;20158;-62
2023/01/30 05:26:51;;;;;;;13.40;7.80;;;7.90;99.90;;;;;;5060416;28;20136;-61
2023/01/30 05:29:17;;;;;;;16.60;8.85;;;7.90;99.90;;;;;;5060372;28;20033;-62
2023/01/30 05:31:43;;;;;;;16.67;8.18;;;8.10;99.90;;;;;;5059233;28;20392;-62
2023/01/30 05:34:11;;;;;;;14.80;8.38;;;8.10;99.90;;;;;;5060026;28;20086;-63
2023/01/30 05:36:37;;;;;;;16.13;8.63;;;8.10;99.90;;;;;;5059912;28;20063;-63
2023/01/30 05:39:03;;;;;;;18.77;8.68;;;8.10;99.90;;;;;;5042582;28;20121;-63
2023/01/30 05:41:29;;;;;;;13.98;8.57;;;8.20;99.90;;;;;;5060023;28;20048;-63
2023/01/30 05:43:55;;;;;;;15.02;9.00;;;8.10;99.90;;;;;;5059697;28;20405;-63
2023/01/30 05:46:20;;;;;;;20.92;9.65;;;8.10;99.90;;;;;;5059082;28;20036;-63
2023/01/30 05:48:46;;;;;;;17.88;9.10;;;8.00;99.90;;;;;;5042256;28;20025;-61
2023/01/30 05:51:23;;;;;;;19.40;8.80;;;8.10;99.90;;;;;;5072680;28;20048;-62
2023/01/30 05:53:49;;;;;;;19.15;8.70;;;8.10;99.90;;;;;;5079687;28;20108;-63
2023/01/30 05:56:16;;;;;;;14.43;8.48;;;8.00;99.90;;;;;;5080106;28;20024;-62
2023/01/30 05:58:42;;;;;;;17.42;8.20;;;8.10;99.90;;;;;;5045561;28;20033;-62
2023/01/30 06:01:11;;;;;;;16.45;8.30;;;8.20;99.90;;;;;;5061929;28;20032;-62
2023/01/30 06:03:38;;;;;;;18.30;7.68;;;8.20;99.90;;;;;;5079443;28;20039;-64
2023/01/30 06:06:05;;;;;;;13.38;6.50;;;8.20;99.90;;;;;;5079422;28;20120;-61
2023/01/30 06:08:31;;;;;;;13.10;6.00;;;8.20;99.90;;;;;;5045533;28;20074;-61
2023/01/30 06:11:01;;;;;;;10.60;5.70;;;8.20;99.90;;;;;;5079365;28;20258;-66
2023/01/30 06:13:28;;;;;;;14.30;5.53;;;8.30;99.90;;;;;;5079187;28;20089;-61
2023/01/30 06:15:53;;;;;;;11.88;5.07;;;8.30;99.90;;;;;;5079322;28;20032;-60
2023/01/30 06:18:19;;;;;;;12.13;4.50;;;8.30;99.90;;;;;;5062003;28;20435;-62
2023/01/30 06:20:49;;;;;;;15.90;4.70;;;8.40;99.90;;;;;;5079106;28;20032;-62
2023/01/30 06:23:16;;;;;;;11.43;4.93;;;8.30;99.90;;;;;;5078874;28;20036;-61
2023/01/30 06:25:46;;;;;;;14.07;5.22;;;8.30;99.90;;;;;;5061690;28;20021;-61
2023/01/30 06:28:13;;;;;;;14.68;4.90;;;8.40;99.90;;;;;;5061643;28;20039;-61
2023/01/30 06:30:39;;;;;;;14.38;4.70;;;8.50;99.90;;;;;;5078970;28;20041;-61
2023/01/30 06:33:06;;;;;;;13.88;4.10;;;8.60;99.90;;;;;;5078877;28;20407;-62
2023/01/30 06:35:33;;;;;;;10.65;3.75;;;8.50;99.90;;;;;;5078817;28;20033;-61
2023/01/30 06:37:58;;;;;;;9.95;3.47;;;8.50;99.90;;;;;;5078781;28;20055;-62
2023/01/30 06:40:24;;;;;;;12.68;3.08;;;8.60;99.90;;;;;;5078795;28;20032;-62
2023/01/30 06:42:50;;;;;;;10.93;2.80;;;8.50;99.90;;;;;;5078730;28;20041;-62
2023/01/30 06:45:17;;;;;;;19.58;3.90;;;8.60;99.90;;;;;;5078787;28;20060;-64
2023/01/30 06:47:54;;;;;;;9.02;3.10;;;8.60;99.90;;;;;;5078573;28;20033;-63
2023/01/30 06:50:24;;;;;;;16.55;2.72;;;8.50;99.90;;;;;;5078397;28;20055;-63
2023/01/30 06:52:50;;;;;;;14.05;2.95;;;8.50;99.90;;;;;;5078359;28;20044;-63
2023/01/30 06:55:18;;;;;;;15.15;3.00;;;8.50;99.90;;;;;;5078457;28;20033;-63
2023/01/30 06:57:45;;;;;;;9.55;3.15;;;8.50;99.90;;;;;;5061093;28;20090;-63
2023/01/30 07:00:16;;;;;;;13.60;2.47;;;8.30;99.90;;;;;;5078527;28;20032;-64
2023/01/30 07:02:42;;;;;;;10.75;2.47;;;8.30;99.90;;;;;;5078113;28;20044;-63
2023/01/30 07:05:09;;;;;;;11.05;3.03;;;8.20;99.90;;;;;;5078222;28;20029;-62
2023/01/30 07:07:36;;;;;;;16.67;2.90;;;8.30;99.90;;;;;;5078123;28;20340;-61
2023/01/30 07:10:04;;;;;;;11.48;2.78;;;8.30;99.90;;;;;;5078131;28;20020;-63
2023/01/30 07:12:29;;;;;;;15.23;2.95;;;8.20;99.90;;;;;;5060835;28;20138;-62
2023/01/30 07:14:55;;;;;;;10.40;2.33;;;8.20;99.90;;;;;;5078055;28;20021;-62
2023/01/30 07:17:21;;;;;;;9.55;2.53;;;8.20;99.90;;;;;;5077987;28;20025;-62
2023/01/30 07:19:47;;;;;;;12.43;3.13;;;8.10;99.90;;;;;;5077834;28;20039;-61
2023/01/30 07:22:14;;;;;;;13.90;3.03;;;8.10;99.90;;;;;;5060285;28;20032;-61
2023/01/30 07:24:42;;;;;;;8.27;2.67;;;8.30;99.90;;;;;;5078026;28;20505;-61
2023/01/30 07:27:09;;;;;;;16.88;3.92;;;8.20;99.90;;;;;;5060476;28;20107;-61
2023/01/30 07:29:37;;;;;;;10.52;2.25;;;8.30;99.90;;;;;;5077551;28;20059;-60
2023/01/30 07:32:04;;;;;;;8.90;2.28;;;8.30;99.90;;;;;;5077461;28;20050;-65
2023/01/30 07:34:30;;;;;;;12.60;2.25;;;8.50;99.90;;;;;;5059592;28;20608;-62
2023/01/30 07:36:55;;;;;;;11.77;2.17;;;8.30;99.90;;;;;;5077516;28;20037;-62
2023/01/30 07:39:21;;;;;;;16.63;2.85;;;8.20;99.90;;;;;;5077572;28;20403;-63
2023/01/30 07:41:47;;;;;;;14.05;2.58;;;8.20;99.90;;;;;;5077233;28;20300;-62
2023/01/30 07:44:13;;;;;;;12.57;2.65;;;8.20;99.90;;;;;;5044234;28;20036;-63
2023/01/30 07:46:40;;;;;;;12.90;2.65;;;8.20;99.90;;;;;;5077351;28;20024;-60
2023/01/30 07:49:07;;;;;;;11.13;2.47;;;8.60;99.90;;;;;;5077477;28;20028;-62
2023/01/30 07:51:34;;;;;;;12.38;2.42;;;8.60;99.90;;;;;;5077249;28;20044;-63
2023/01/30 07:54:00;;;;;;;12.35;3.13;;;8.40;99.90;;;;;;5060248;28;20051;-63
2023/01/30 07:56:27;;;;;;;14.38;2.53;;;8.30;99.90;;;;;;5077276;28;20032;-63
2023/01/30 07:58:54;;;;;;;15.10;3.03;;;8.30;99.90;;;;;;5077257;28;20079;-63
2023/01/30 08:01:21;;;;;;;10.30;2.83;;;8.20;99.90;;;;;;5059926;28;20070;-63
2023/01/30 08:03:48;;;;;;;13.50;2.70;;;8.10;99.90;;;;;;5077133;28;20032;-62
2023/01/30 08:06:17;;;;;;;14.35;2.92;;;8.10;99.90;;;;;;5077240;28;20082;-61
2023/01/30 08:08:43;;;;;;;10.73;2.35;;;8.20;99.90;;;;;;5043156;28;20299;-63
2023/01/30 08:11:10;;;;;;;9.18;2.38;;;8.10;99.90;;;;;;5077168;28;20028;-63
2023/01/30 08:13:36;;;;;;;18.30;2.92;;;8.10;99.90;;;;;;5077027;28;20028;-63
2023/01/30 08:16:03;;;;;;;10.32;2.47;;;8.10;99.90;;;;;;5060215;28;20040;-63
2023/01/30 08:18:30;;;;;;;12.75;3.15;;;8.10;99.90;;;;;;5077100;28;20032;-64
2023/01/30 08:20:57;;;;;;;16.48;3.47;;;8.20;99.90;;;;;;5077035;28;20037;-62
2023/01/30 08:23:23;;;;;;;13.77;3.28;;;8.10;99.90;;;;;;5059791;28;20036;-61
2023/01/30 08:25:48;;;;;;;14.20;3.13;;;8.10;99.90;;;;;;5043013;28;20025;-61
2023/01/30 08:28:14;;;;;;;13.20;3.10;;;8.10;99.90;;;;;;5076970;28;20032;-61
2023/01/30 08:30:41;;;;;;;15.55;3.33;;;8.10;99.90;;;;;;5076889;28;20036;-62
2023/01/30 08:33:06;;;;;;;15.45;2.50;;;8.20;99.90;;;;;;5059439;28;20048;-61
2023/01/30 08:35:32;;;;;;;14.70;3.05;;;8.30;99.90;;;;;;5077445;28;20041;-61
2023/01/30 08:37:58;;;;;;;12.20;2.70;;;8.20;99.90;;;;;;5077019;28;20361;-61
2023/01/30 08:40:24;;;;;;;14.63;3.00;;;8.10;99.90;;;;;;5060091;28;20082;-62
2023/01/30 08:42:50;;;;;;;10.98;2.97;;;8.10;99.90;;;;;;5059357;28;20040;-63
2023/01/30 08:45:16;;;;;;;14.82;3.67;;;8.10;99.90;;;;;;5076804;28;20297;-62
2023/01/30 08:47:41;;;;;;;12.48;3.42;;;8.10;99.90;;;;;;5079050;28;20335;-62
2023/01/30 08:50:08;;;;;;;15.50;3.13;;;8.10;99.90;;;;;;5063395;28;20083;-62
2023/01/30 08:52:34;;;;;;;13.35;3.47;;;8.10;99.90;;;;;;5063464;28;20035;-62
2023/01/30 08:55:00;;;;;;;18.80;3.50;;;8.20;99.90;;;;;;5081344;28;20032;-62
2023/01/30 08:57:25;;;;;;;9.55;2.75;;;8.20;99.90;;;;;;5080636;28;20032;-63
2023/01/30 08:59:51;;;;;;;11.95;2.67;;;8.10;99.90;;;;;;5063295;28;20558;-62
2023/01/30 09:02:17;;;;;;;14.85;2.97;;;8.10;99.90;;;;;;5080590;28;20359;-64
2023/01/30 09:04:43;;;;;;;14.88;2.70;;;8.00;99.90;;;;;;5063605;28;20039;-63
2023/01/30 09:07:09;;;;;;;19.05;2.85;;;8.00;99.90;;;;;;5080443;28;20028;-63
2023/01/30 09:09:35;;;;;;;14.23;2.95;;;8.10;99.90;;;;;;5080303;28;20044;-64
2023/01/30 09:12:01;;;;;;;9.63;1.90;;;8.20;99.90;;;;;;5046356;28;20404;-62
2023/01/30 09:14:27;;;;;;;10.30;1.88;;;8.10;99.90;;;;;;5063161;28;20048;-63
2023/01/30 09:16:55;;;;;;;13.85;2.35;;;8.20;99.90;;;;;;5080273;28;20032;-63
2023/01/30 09:19:26;;;;;;;13.07;2.45;;;8.20;99.90;;;;;;5063407;28;20032;-63
2023/01/30 09:21:53;;;;;;;13.45;2.42;;;8.30;99.90;;;;;;5062592;28;20028;-63
2023/01/30 09:24:25;;;;;;;10.05;2.60;;;8.40;99.90;;;;;;5080028;28;20032;-63
2023/01/30 09:26:52;;;;;;;11.57;2.45;;;8.40;99.90;;;;;;5063622;28;20404;-63
2023/01/30 09:29:18;;;;;;;13.55;2.65;;;8.40;99.90;;;;;;5062816;28;20024;-63
2023/01/30 09:31:44;;;;;;;20.35;2.38;;;8.40;99.90;;;;;;5045995;28;20028;-63
2023/01/30 09:34:10;;;;;;;17.83;3.05;;;8.50;99.90;;;;;;5079919;28;20044;-63
2023/01/30 09:36:36;;;;;;;22.27;2.40;;;8.60;99.90;;;;;;5079926;28;20025;-63
2023/01/30 09:39:02;;;;;;;15.85;2.58;;;8.70;99.90;;;;;;5079947;28;20146;-62
2023/01/30 09:42:04;;;;;;;12.18;2.50;;;8.70;99.90;;;;;;5080434;28;20037;-63
2023/01/30 09:44:45;;;;;;;9.02;1.58;;;8.70;99.90;;;;;;5079834;28;20039;-64
2023/01/30 09:47:27;;;;;;;15.10;2.65;;;8.60;99.90;;;;;;5079763;28;20032;-62
2023/01/30 09:50:38;;;;;;;13.48;2.53;;;8.70;99.90;;;;;;5080041;28;20037;-65
2023/01/30 09:53:28;;;;;;;17.90;2.53;;;8.70;99.90;;;;;;5059051;28;20036;-63
2023/01/30 09:55:59;;;;;;;15.32;3.08;;;8.70;99.90;;;;;;5062261;28;20037;-62
2023/01/30 09:58:36;;;;;;;17.83;2.92;;;8.80;99.90;;;;;;5079148;28;20343;-64
2023/01/30 10:01:06;;;;;;;12.13;2.00;;;8.90;99.90;;;;;;5062140;28;20034;-65
2023/01/30 10:03:38;;;;;;;12.93;2.05;;;9.10;99.90;;;;;;5062066;28;20029;-63
2023/01/30 10:06:09;;;;;;;15.40;2.15;;;9.20;99.90;;;;;;5080141;28;20054;-63
2023/01/30 10:08:54;;;;;;;10.95;2.05;;;9.20;99.90;;;;;;5079336;28;20028;-64
2023/01/30 10:11:51;;;;;;;12.10;2.10;;;9.40;99.90;;;;;;5079369;28;20033;-63
2023/01/30 10:14:35;;;;;;;8.02;1.42;;;9.70;99.90;;;;;;5079249;28;20032;-64
2023/01/30 10:17:27;;;;;;;9.93;1.80;;;10.00;99.90;;;;;;5061551;28;20438;-63
2023/01/30 10:20:11;;;;;;;8.33;1.47;;;10.30;99.90;;;;;;5079569;28;20097;-61
2023/01/30 10:23:20;;;;;;;8.95;1.83;;;10.10;99.90;;;;;;5079004;28;20594;-62
2023/01/30 10:25:51;;;;;;;10.70;1.83;;;10.30;99.90;;;;;;5018207;28;20030;-61
2023/01/30 10:28:21;;;;;;;13.93;2.45;;;10.30;99.90;;;;;;5054932;28;20277;-70
2023/01/30 10:30:50;;;;;;;10.55;1.80;;;10.40;99.90;;;;;;5079008;28;20023;-64
2023/01/30 10:33:29;;;;;;;9.23;2.10;;;10.40;99.90;;;;;;5061346;28;20037;-64
2023/01/30 10:36:20;;;;;;;11.30;1.85;;;10.60;99.90;;;;;;5079099;28;20097;-66
2023/01/30 10:38:51;;;;;;;9.10;2.10;;;10.70;99.90;;;;;;5078910;28;20392;-63
2023/01/30 10:41:25;;;;;;;11.18;2.17;;;10.80;99.90;;;;;;5078880;28;20048;-63
2023/01/30 10:44:12;;;;;;;8.10;2.15;;;10.80;99.90;;;;;;5061223;28;20090;-63
2023/01/30 10:47:10;;;;;;;9.40;2.33;;;11.20;99.90;;;;;;5061168;28;20040;-62
2023/01/30 10:49:52;;;;;;;11.02;1.77;;;11.30;99.90;;;;;;5078041;28;20037;-63
2023/01/30 10:52:23;;;;;;;11.67;1.90;;;11.40;99.90;;;;;;5061310;28;20036;-64
2023/01/30 10:55:01;;;;;;;10.07;2.13;;;11.40;99.90;;;;;;5078669;28;20277;-66
2023/01/30 10:57:53;;;;;;;8.07;1.83;;;11.60;99.90;;;;;;5078802;28;20050;-67
2023/01/30 11:00:45;;;;;;;11.60;2.00;;;11.20;99.90;;;;;;5044423;28;20024;-65
2023/01/30 11:03:36;;;;;;;13.17;2.37;;;10.90;99.90;;;;;;5071732;28;20423;-63
2023/01/30 11:06:09;;;;;;;17.13;2.78;;;10.60;99.90;;;;;;5078548;28;20028;-65
2023/01/30 11:08:35;;;;;;;14.40;2.53;;;10.80;99.90;;;;;;5078245;28;20078;-64
2023/01/30 11:11:19;;;;;;;9.75;2.10;;;10.70;99.90;;;;;;5059959;28;20039;-63
2023/01/30 11:13:45;;;;;;;13.65;2.25;;;10.60;99.90;;;;;;5078187;28;20336;-62
2023/01/30 11:16:12;;;;;;;12.85;2.13;;;10.60;99.90;;;;;;5078010;28;20181;-69
2023/01/30 11:18:49;;;;;;;12.63;2.47;;;10.70;99.90;;;;;;5060819;28;20308;-63
2023/01/30 11:21:30;;;;;;;17.25;2.60;;;10.80;99.90;;;;;;5078556;28;20044;-63
2023/01/30 11:24:02;;;;;;;15.18;2.53;;;10.80;99.90;;;;;;5077788;28;20426;-64
2023/01/30 11:26:36;;;;;;;16.70;3.22;;;10.50;99.90;;;;;;5076999;28;20037;-65
2023/01/30 11:29:27;;;;;;;11.73;2.60;;;10.30;99.90;;;;;;5060551;28;20162;-64
2023/01/30 11:31:53;;;;;;;13.18;2.42;;;10.40;99.90;;;;;;5078255;28;20028;-66
2023/01/30 11:34:21;;;;;;;13.88;2.97;;;10.60;99.90;;;;;;5077742;28;20035;-65
2023/01/30 11:36:48;;;;;;;16.52;2.78;;;10.70;99.90;;;;;;5077687;28;20288;-69
2023/01/30 11:39:17;;;;;;;11.98;2.38;;;10.60;99.90;;;;;;5077660;28;20037;-65
2023/01/30 11:42:02;;;;;;;13.90;2.38;;;10.40;99.90;;;;;;5077558;28;20081;-65
2023/01/30 11:44:36;;;;;;;12.23;2.63;;;10.30;99.90;;;;;;5077460;28;20056;-65
2023/01/30 11:47:26;;;;;;;13.50;2.88;;;10.20;99.90;;;;;;5077467;28;20032;-65
2023/01/30 11:50:00;;;;;;;13.90;2.33;;;10.10;99.90;;;;;;5059838;28;20339;-67
2023/01/30 11:52:30;;;;;;;14.55;2.67;;;10.10;99.90;;;;;;5059950;28;20024;-65
2023/01/30 11:55:07;;;;;;;15.63;2.70;;;10.00;99.90;;;;;;5077954;28;20025;-63
2023/01/30 11:57:42;;;;;;;12.35;2.70;;;10.10;99.90;;;;;;5059890;28;20082;-64
2023/01/30 12:00:21;;;;;;;14.07;2.55;;;10.30;99.90;;;;;;5027163;28;20123;-66
2023/01/30 12:02:48;;;;;;;14.07;2.63;;;10.50;99.90;;;;;;5077202;28;20097;-64
2023/01/30 12:05:17;;;;;;;14.93;2.53;;;10.40;99.90;;;;;;5077336;28;20400;-63
2023/01/30 12:07:47;;;;;;;15.02;2.95;;;10.30;99.90;;;;;;5077576;28;20024;-64
2023/01/30 12:10:30;;;;;;;12.93;2.35;;;10.40;99.90;;;;;;5077227;28;20024;-64
2023/01/30 12:12:59;;;;;;;;;;;10.40;99.90;;;;;;5060212;28;20043;-64
2023/01/30 12:15:28;;;;;;;14.27;2.20;;;10.40;99.90;;;;;;5077158;28;19995;-64
2023/01/30 12:18:09;;;;;;;18.55;2.53;;;10.30;99.90;;;;;;5059550;28;20048;-65
2023/01/30 12:21:01;;;;;;;12.10;2.17;;;10.30;99.90;;;;;;5077017;28;20345;-63
2023/01/30 12:23:55;;;;;;;11.93;2.38;;;10.30;99.90;;;;;;5059643;28;20374;-64
2023/01/30 12:26:36;;;;;;;18.15;2.58;;;10.20;99.90;;;;;;5042956;28;20116;-62
2023/01/30 12:29:16;;;;;;;11.32;1.90;;;10.10;99.90;;;;;;5076990;28;20028;-63
2023/01/30 12:31:47;;;;;;;15.10;3.00;;;10.20;99.90;;;;;;5059585;28;20105;-63
2023/01/30 12:34:13;;;;;;;14.43;2.20;;;10.30;99.90;;;;;;5076935;28;20071;-62
2023/01/30 12:37:07;;;;;;;17.48;2.30;;;10.40;99.90;;;;;;5076895;28;20052;-63
2023/01/30 12:39:58;;;;;;;17.98;2.88;;;10.50;99.90;;;;;;5029312;28;20370;-63
2023/01/30 12:42:39;;;;;;;11.15;2.30;;;10.50;99.90;;;;;;5077202;28;20043;-61
2023/01/30 12:45:13;;;;;;;16.10;2.90;;;10.30;99.90;;;;;;5076854;28;20104;-68
2023/01/30 12:48:05;;;;;;;17.13;2.85;;;10.30;99.90;;;;;;5076785;28;20046;-65
2023/01/30 12:51:05;;;;;;;17.95;2.53;;;10.40;99.90;;;;;;5076975;28;20044;-64
2023/01/30 12:53:40;;;;;;;13.75;2.33;;;10.50;99.90;;;;;;5059375;28;20048;-65
2023/01/30 12:56:21;;;;;;;12.82;2.53;;;10.60;99.90;;;;;;5076560;28;20296;-65
2023/01/30 12:59:19;;;;;;;17.40;2.40;;;10.60;99.90;;;;;;5059037;28;20085;-63
2023/01/30 13:02:24;;;;;;;14.02;2.45;;;10.80;99.90;;;;;;5076587;28;20024;-64
2023/01/30 13:04:59;;;;;;;19.58;2.92;;;10.80;99.90;;;;;;5065478;28;20044;-63
2023/01/30 13:07:42;;;;;;;18.83;2.78;;;10.90;99.90;;;;;;5076547;28;20376;-70
2023/01/30 13:10:25;;;;;;;18.92;2.90;;;10.80;99.90;;;;;;5059192;28;20036;-63
2023/01/30 13:13:06;;;;;;;14.25;2.53;;;10.70;99.90;;;;;;5077156;28;20396;-62
2023/01/30 13:15:32;;;;;;;18.38;2.88;;;10.80;99.90;;;;;;5059669;28;20457;-63